sensor_id;sensor_type;location;lat;lon;timestamp;P1;durP1;ratioP1;P2;durP2;ratioP2
4389;SDS011;2209;48.982;8.406;2023-11-21T00:00:15;6.77;;;2.30;;
4389;SDS011;2209;48.982;8.406;2023-11-21T00:02:38;7.70;;;2.30;;
4389;SDS011;2209;48.982;8.406;2023-11-21T00:05:01;4.43;;;2.20;;
4389;SDS011;2209;48.982;8.406;2023-11-21T00:07:23;9.27;;;2.20;;
4389;SDS011;2209;48.982;8.406;2023-11-21T00:09:45;3.87;;;2.00;;
4389;SDS011;2209;48.982;8.406;2023-11-21T00:12:09;5.17;;;2.40;;
4389;SDS011;2209;48.982;8.406;2023-11-21T00:14:31;4.10;;;1.63;;
4389;SDS011;2209;48.982;8.406;2023-11-21T00:16:53;5.03;;;1.90;;
4389;SDS011;2209;48.982;8.406;2023-11-21T00:19:15;2.43;;;1.67;;
4389;SDS011;2209;48.982;8.406;2023-11-21T00:21:37;3.60;;;1.80;;
4389;SDS011;2209;48.982;8.406;2023-11-21T00:23:59;2.43;;;1.60;;
4389;SDS011;2209;48.982;8.406;2023-11-21T00:26:22;2.20;;;2.00;;
4389;SDS011;2209;48.982;8.406;2023-11-21T00:28:45;3.30;;;1.77;;
4389;SDS011;2209;48.982;8.406;2023-11-21T00:31:07;3.80;;;1.83;;
4389;SDS011;2209;48.982;8.406;2023-11-21T00:33:29;4.93;;;1.50;;
4389;SDS011;2209;48.982;8.406;2023-11-21T00:35:52;4.97;;;1.77;;
4389;SDS011;2209;48.982;8.406;2023-11-21T00:38:14;8.43;;;2.30;;
4389;SDS011;2209;48.982;8.406;2023-11-21T00:40:36;4.00;;;1.80;;
4389;SDS011;2209;48.982;8.406;2023-11-21T00:42:58;10.20;;;1.87;;
4389;SDS011;2209;48.982;8.406;2023-11-21T00:45:21;3.00;;;1.90;;
4389;SDS011;2209;48.982;8.406;2023-11-21T00:47:43;2.40;;;1.50;;
4389;SDS011;2209;48.982;8.406;2023-11-21T00:50:06;3.10;;;1.90;;
4389;SDS011;2209;48.982;8.406;2023-11-21T00:52:28;2.53;;;1.40;;
4389;SDS011;2209;48.982;8.406;2023-11-21T00:54:50;5.47;;;1.63;;
4389;SDS011;2209;48.982;8.406;2023-11-21T00:57:12;3.00;;;1.63;;
4389;SDS011;2209;48.982;8.406;2023-11-21T00:59:35;3.40;;;1.60;;
4389;SDS011;2209;48.982;8.406;2023-11-21T01:01:58;5.97;;;2.00;;
4389;SDS011;2209;48.982;8.406;2023-11-21T01:04:21;5.23;;;2.07;;
4389;SDS011;2209;48.982;8.406;2023-11-21T01:06:44;3.00;;;1.70;;
4389;SDS011;2209;48.982;8.406;2023-11-21T01:09:06;3.93;;;1.57;;
4389;SDS011;2209;48.982;8.406;2023-11-21T01:11:28;4.70;;;1.70;;
4389;SDS011;2209;48.982;8.406;2023-11-21T01:13:51;4.13;;;1.80;;
4389;SDS011;2209;48.982;8.406;2023-11-21T01:16:14;3.40;;;1.87;;
4389;SDS011;2209;48.982;8.406;2023-11-21T01:18:37;7.73;;;2.40;;
4389;SDS011;2209;48.982;8.406;2023-11-21T01:20:59;3.53;;;1.37;;
4389;SDS011;2209;48.982;8.406;2023-11-21T01:23:21;4.70;;;1.70;;
4389;SDS011;2209;48.982;8.406;2023-11-21T01:25:43;3.90;;;1.97;;
4389;SDS011;2209;48.982;8.406;2023-11-21T01:28:05;3.40;;;1.60;;
4389;SDS011;2209;48.982;8.406;2023-11-21T01:30:27;4.10;;;1.73;;
4389;SDS011;2209;48.982;8.406;2023-11-21T01:32:49;3.27;;;1.57;;
4389;SDS011;2209;48.982;8.406;2023-11-21T01:35:12;4.10;;;1.70;;
4389;SDS011;2209;48.982;8.406;2023-11-21T01:37:34;4.17;;;1.40;;
4389;SDS011;2209;48.982;8.406;2023-11-21T01:39:56;5.13;;;1.83;;
4389;SDS011;2209;48.982;8.406;2023-11-21T01:42:19;5.50;;;1.50;;
4389;SDS011;2209;48.982;8.406;2023-11-21T01:44:41;2.80;;;1.60;;
4389;SDS011;2209;48.982;8.406;2023-11-21T01:47:03;5.00;;;2.10;;
4389;SDS011;2209;48.982;8.406;2023-11-21T01:49:26;4.40;;;1.70;;
4389;SDS011;2209;48.982;8.406;2023-11-21T01:51:50;2.67;;;1.33;;
4389;SDS011;2209;48.982;8.406;2023-11-21T01:54:12;5.53;;;1.60;;
4389;SDS011;2209;48.982;8.406;2023-11-21T01:56:34;6.20;;;2.20;;
4389;SDS011;2209;48.982;8.406;2023-11-21T01:58:57;4.87;;;2.40;;
4389;SDS011;2209;48.982;8.406;2023-11-21T02:01:19;2.23;;;1.50;;
4389;SDS011;2209;48.982;8.406;2023-11-21T02:03:41;2.83;;;1.90;;
4389;SDS011;2209;48.982;8.406;2023-11-21T02:06:04;3.53;;;1.53;;
4389;SDS011;2209;48.982;8.406;2023-11-21T02:08:28;3.27;;;1.50;;
4389;SDS011;2209;48.982;8.406;2023-11-21T02:10:50;5.73;;;1.90;;
4389;SDS011;2209;48.982;8.406;2023-11-21T02:13:18;2.40;;;1.83;;
4389;SDS011;2209;48.982;8.406;2023-11-21T02:15:41;3.17;;;1.20;;
4389;SDS011;2209;48.982;8.406;2023-11-21T02:18:03;1.57;;;1.23;;
4389;SDS011;2209;48.982;8.406;2023-11-21T02:20:26;4.93;;;1.83;;
4389;SDS011;2209;48.982;8.406;2023-11-21T02:22:51;4.10;;;1.77;;
4389;SDS011;2209;48.982;8.406;2023-11-21T02:25:18;3.37;;;1.90;;
4389;SDS011;2209;48.982;8.406;2023-11-21T02:27:40;2.30;;;1.40;;
4389;SDS011;2209;48.982;8.406;2023-11-21T02:30:03;3.00;;;1.77;;
4389;SDS011;2209;48.982;8.406;2023-11-21T02:32:28;2.90;;;1.33;;
4389;SDS011;2209;48.982;8.406;2023-11-21T02:34:51;2.63;;;1.40;;
4389;SDS011;2209;48.982;8.406;2023-11-21T02:37:16;4.63;;;1.67;;
4389;SDS011;2209;48.982;8.406;2023-11-21T02:39:39;4.50;;;2.10;;
4389;SDS011;2209;48.982;8.406;2023-11-21T02:42:01;2.13;;;1.17;;
4389;SDS011;2209;48.982;8.406;2023-11-21T02:44:24;5.90;;;1.53;;
4389;SDS011;2209;48.982;8.406;2023-11-21T02:46:46;2.80;;;1.20;;
4389;SDS011;2209;48.982;8.406;2023-11-21T02:49:08;2.50;;;1.23;;
4389;SDS011;2209;48.982;8.406;2023-11-21T02:51:30;2.67;;;1.33;;
4389;SDS011;2209;48.982;8.406;2023-11-21T02:53:52;1.43;;;1.23;;
4389;SDS011;2209;48.982;8.406;2023-11-21T02:56:16;4.47;;;1.87;;
4389;SDS011;2209;48.982;8.406;2023-11-21T02:58:40;4.63;;;1.83;;
4389;SDS011;2209;48.982;8.406;2023-11-21T03:01:03;3.13;;;1.30;;
4389;SDS011;2209;48.982;8.406;2023-11-21T03:03:26;3.30;;;1.60;;
4389;SDS011;2209;48.982;8.406;2023-11-21T03:05:49;3.30;;;1.60;;
4389;SDS011;2209;48.982;8.406;2023-11-21T03:08:11;3.50;;;1.83;;
4389;SDS011;2209;48.982;8.406;2023-11-21T03:10:33;3.33;;;1.53;;
4389;SDS011;2209;48.982;8.406;2023-11-21T03:12:56;1.50;;;1.40;;
4389;SDS011;2209;48.982;8.406;2023-11-21T03:15:18;5.17;;;1.67;;
4389;SDS011;2209;48.982;8.406;2023-11-21T03:17:40;4.60;;;1.87;;
4389;SDS011;2209;48.982;8.406;2023-11-21T03:20:02;7.83;;;2.27;;
4389;SDS011;2209;48.982;8.406;2023-11-21T03:22:25;4.40;;;1.53;;
4389;SDS011;2209;48.982;8.406;2023-11-21T03:24:47;3.10;;;1.70;;
4389;SDS011;2209;48.982;8.406;2023-11-21T03:27:09;2.37;;;1.50;;
4389;SDS011;2209;48.982;8.406;2023-11-21T03:29:33;3.00;;;1.33;;
4389;SDS011;2209;48.982;8.406;2023-11-21T03:31:55;5.03;;;1.40;;
4389;SDS011;2209;48.982;8.406;2023-11-21T03:34:22;1.80;;;1.67;;
4389;SDS011;2209;48.982;8.406;2023-11-21T03:36:46;3.10;;;1.60;;
4389;SDS011;2209;48.982;8.406;2023-11-21T03:39:08;5.13;;;2.20;;
4389;SDS011;2209;48.982;8.406;2023-11-21T03:41:30;3.17;;;1.77;;
4389;SDS011;2209;48.982;8.406;2023-11-21T03:47:11;3.60;;;1.47;;
4389;SDS011;2209;48.982;8.406;2023-11-21T03:49:33;3.27;;;1.87;;
4389;SDS011;2209;48.982;8.406;2023-11-21T03:51:56;3.20;;;1.53;;
4389;SDS011;2209;48.982;8.406;2023-11-21T03:54:19;5.00;;;2.00;;
4389;SDS011;2209;48.982;8.406;2023-11-21T03:56:41;3.03;;;1.60;;
4389;SDS011;2209;48.982;8.406;2023-11-21T03:59:03;5.40;;;1.63;;
4389;SDS011;2209;48.982;8.406;2023-11-21T04:01:26;2.73;;;1.50;;
4389;SDS011;2209;48.982;8.406;2023-11-21T04:03:50;1.70;;;1.50;;
4389;SDS011;2209;48.982;8.406;2023-11-21T04:06:12;3.90;;;1.50;;
4389;SDS011;2209;48.982;8.406;2023-11-21T04:08:35;4.07;;;1.20;;
4389;SDS011;2209;48.982;8.406;2023-11-21T04:10:57;3.90;;;1.70;;
4389;SDS011;2209;48.982;8.406;2023-11-21T04:13:20;2.13;;;1.50;;
4389;SDS011;2209;48.982;8.406;2023-11-21T04:15:42;1.73;;;1.17;;
4389;SDS011;2209;48.982;8.406;2023-11-21T04:18:04;4.17;;;1.97;;
4389;SDS011;2209;48.982;8.406;2023-11-21T04:20:28;3.13;;;1.70;;
4389;SDS011;2209;48.982;8.406;2023-11-21T04:22:50;3.07;;;1.80;;
4389;SDS011;2209;48.982;8.406;2023-11-21T04:25:13;7.23;;;1.67;;
4389;SDS011;2209;48.982;8.406;2023-11-21T04:27:36;3.70;;;1.60;;
4389;SDS011;2209;48.982;8.406;2023-11-21T04:29:59;2.20;;;1.47;;
4389;SDS011;2209;48.982;8.406;2023-11-21T04:32:21;3.07;;;1.33;;
4389;SDS011;2209;48.982;8.406;2023-11-21T04:34:43;3.30;;;1.50;;
4389;SDS011;2209;48.982;8.406;2023-11-21T04:37:07;4.83;;;1.70;;
4389;SDS011;2209;48.982;8.406;2023-11-21T04:39:31;4.93;;;1.63;;
4389;SDS011;2209;48.982;8.406;2023-11-21T04:41:53;2.40;;;1.57;;
4389;SDS011;2209;48.982;8.406;2023-11-21T04:44:15;5.43;;;1.50;;
4389;SDS011;2209;48.982;8.406;2023-11-21T04:46:37;3.00;;;1.60;;
4389;SDS011;2209;48.982;8.406;2023-11-21T04:48:59;4.03;;;1.90;;
4389;SDS011;2209;48.982;8.406;2023-11-21T04:51:21;3.43;;;1.97;;
4389;SDS011;2209;48.982;8.406;2023-11-21T04:53:45;4.67;;;1.80;;
4389;SDS011;2209;48.982;8.406;2023-11-21T04:56:07;2.60;;;1.43;;
4389;SDS011;2209;48.982;8.406;2023-11-21T04:58:29;2.03;;;1.80;;
4389;SDS011;2209;48.982;8.406;2023-11-21T05:00:51;4.80;;;1.70;;
4389;SDS011;2209;48.982;8.406;2023-11-21T05:03:14;1.57;;;1.37;;
4389;SDS011;2209;48.982;8.406;2023-11-21T05:05:36;2.77;;;2.20;;
4389;SDS011;2209;48.982;8.406;2023-11-21T05:07:58;2.63;;;1.83;;
4389;SDS011;2209;48.982;8.406;2023-11-21T05:10:20;4.20;;;1.70;;
4389;SDS011;2209;48.982;8.406;2023-11-21T05:12:43;3.47;;;2.10;;
4389;SDS011;2209;48.982;8.406;2023-11-21T05:15:05;2.87;;;2.20;;
4389;SDS011;2209;48.982;8.406;2023-11-21T05:17:30;2.80;;;2.00;;
4389;SDS011;2209;48.982;8.406;2023-11-21T05:19:52;4.37;;;2.50;;
4389;SDS011;2209;48.982;8.406;2023-11-21T05:22:14;3.73;;;1.90;;
4389;SDS011;2209;48.982;8.406;2023-11-21T05:24:36;4.23;;;2.60;;
4389;SDS011;2209;48.982;8.406;2023-11-21T05:27:00;6.03;;;2.80;;
4389;SDS011;2209;48.982;8.406;2023-11-21T05:29:22;8.20;;;2.60;;
4389;SDS011;2209;48.982;8.406;2023-11-21T05:31:46;3.43;;;2.13;;
4389;SDS011;2209;48.982;8.406;2023-11-21T05:34:08;3.23;;;2.17;;
4389;SDS011;2209;48.982;8.406;2023-11-21T05:36:30;3.20;;;1.80;;
4389;SDS011;2209;48.982;8.406;2023-11-21T05:38:52;3.23;;;2.80;;
4389;SDS011;2209;48.982;8.406;2023-11-21T05:41:14;2.40;;;2.20;;
4389;SDS011;2209;48.982;8.406;2023-11-21T05:43:38;4.50;;;2.37;;
4389;SDS011;2209;48.982;8.406;2023-11-21T05:46:01;4.57;;;2.30;;
4389;SDS011;2209;48.982;8.406;2023-11-21T05:48:23;4.10;;;2.20;;
4389;SDS011;2209;48.982;8.406;2023-11-21T05:50:46;2.20;;;2.00;;
4389;SDS011;2209;48.982;8.406;2023-11-21T05:53:08;2.90;;;2.17;;
4389;SDS011;2209;48.982;8.406;2023-11-21T05:55:31;3.27;;;2.10;;
4389;SDS011;2209;48.982;8.406;2023-11-21T05:57:53;1.97;;;1.63;;
4389;SDS011;2209;48.982;8.406;2023-11-21T06:00:17;2.10;;;1.90;;
4389;SDS011;2209;48.982;8.406;2023-11-21T06:02:40;5.43;;;2.40;;
4389;SDS011;2209;48.982;8.406;2023-11-21T06:05:03;3.60;;;2.20;;
4389;SDS011;2209;48.982;8.406;2023-11-21T06:07:25;2.10;;;1.90;;
4389;SDS011;2209;48.982;8.406;2023-11-21T06:09:48;2.57;;;2.30;;
4389;SDS011;2209;48.982;8.406;2023-11-21T06:12:10;2.00;;;1.90;;
4389;SDS011;2209;48.982;8.406;2023-11-21T06:14:32;3.30;;;1.97;;
4389;SDS011;2209;48.982;8.406;2023-11-21T06:16:57;2.40;;;1.93;;
4389;SDS011;2209;48.982;8.406;2023-11-21T06:19:19;2.90;;;1.70;;
4389;SDS011;2209;48.982;8.406;2023-11-21T06:21:41;2.23;;;2.03;;
4389;SDS011;2209;48.982;8.406;2023-11-21T06:24:06;3.47;;;1.90;;
4389;SDS011;2209;48.982;8.406;2023-11-21T06:26:28;1.80;;;1.60;;
4389;SDS011;2209;48.982;8.406;2023-11-21T06:28:52;2.03;;;1.93;;
4389;SDS011;2209;48.982;8.406;2023-11-21T06:31:14;2.03;;;1.80;;
4389;SDS011;2209;48.982;8.406;2023-11-21T06:33:37;2.07;;;1.97;;
4389;SDS011;2209;48.982;8.406;2023-11-21T06:35:59;2.17;;;1.67;;
4389;SDS011;2209;48.982;8.406;2023-11-21T06:38:23;2.40;;;2.20;;
4389;SDS011;2209;48.982;8.406;2023-11-21T06:40:45;2.23;;;2.13;;
4389;SDS011;2209;48.982;8.406;2023-11-21T06:43:07;2.30;;;2.10;;
4389;SDS011;2209;48.982;8.406;2023-11-21T06:45:29;2.17;;;1.97;;
4389;SDS011;2209;48.982;8.406;2023-11-21T06:47:51;3.43;;;2.20;;
4389;SDS011;2209;48.982;8.406;2023-11-21T06:50:15;2.80;;;2.70;;
4389;SDS011;2209;48.982;8.406;2023-11-21T06:52:37;3.17;;;2.53;;
4389;SDS011;2209;48.982;8.406;2023-11-21T06:54:59;6.60;;;2.87;;
4389;SDS011;2209;48.982;8.406;2023-11-21T06:57:22;2.40;;;2.30;;
4389;SDS011;2209;48.982;8.406;2023-11-21T06:59:45;3.53;;;3.30;;
4389;SDS011;2209;48.982;8.406;2023-11-21T07:02:07;3.57;;;3.23;;
4389;SDS011;2209;48.982;8.406;2023-11-21T07:04:29;4.07;;;3.67;;
4389;SDS011;2209;48.982;8.406;2023-11-21T07:06:53;4.77;;;3.60;;
4389;SDS011;2209;48.982;8.406;2023-11-21T07:09:16;4.80;;;2.97;;
4389;SDS011;2209;48.982;8.406;2023-11-21T07:11:38;4.03;;;3.70;;
4389;SDS011;2209;48.982;8.406;2023-11-21T07:14:00;5.00;;;3.37;;
4389;SDS011;2209;48.982;8.406;2023-11-21T07:16:25;4.30;;;3.70;;
4389;SDS011;2209;48.982;8.406;2023-11-21T07:18:47;4.97;;;3.23;;
4389;SDS011;2209;48.982;8.406;2023-11-21T07:21:10;4.23;;;3.60;;
4389;SDS011;2209;48.982;8.406;2023-11-21T07:23:34;8.13;;;4.30;;
4389;SDS011;2209;48.982;8.406;2023-11-21T07:25:56;6.60;;;4.47;;
4389;SDS011;2209;48.982;8.406;2023-11-21T07:28:18;3.73;;;3.40;;
4389;SDS011;2209;48.982;8.406;2023-11-21T07:30:40;4.10;;;3.70;;
4389;SDS011;2209;48.982;8.406;2023-11-21T07:33:03;4.30;;;3.90;;
4389;SDS011;2209;48.982;8.406;2023-11-21T07:35:25;4.13;;;3.67;;
4389;SDS011;2209;48.982;8.406;2023-11-21T07:37:48;4.17;;;3.70;;
4389;SDS011;2209;48.982;8.406;2023-11-21T07:40:11;4.03;;;3.63;;
4389;SDS011;2209;48.982;8.406;2023-11-21T07:42:34;4.20;;;3.37;;
4389;SDS011;2209;48.982;8.406;2023-11-21T07:44:56;4.50;;;4.07;;
4389;SDS011;2209;48.982;8.406;2023-11-21T07:47:18;4.20;;;3.90;;
4389;SDS011;2209;48.982;8.406;2023-11-21T07:49:40;4.30;;;3.73;;
4389;SDS011;2209;48.982;8.406;2023-11-21T07:52:04;5.23;;;4.03;;
4389;SDS011;2209;48.982;8.406;2023-11-21T07:54:26;3.80;;;3.40;;
4389;SDS011;2209;48.982;8.406;2023-11-21T07:56:49;3.97;;;3.53;;
4389;SDS011;2209;48.982;8.406;2023-11-21T07:59:11;5.00;;;4.60;;
4389;SDS011;2209;48.982;8.406;2023-11-21T08:01:34;4.53;;;4.13;;
4389;SDS011;2209;48.982;8.406;2023-11-21T08:03:56;3.87;;;3.47;;
4389;SDS011;2209;48.982;8.406;2023-11-21T08:06:22;4.47;;;4.07;;
4389;SDS011;2209;48.982;8.406;2023-11-21T08:08:46;3.30;;;3.00;;
4389;SDS011;2209;48.982;8.406;2023-11-21T08:11:08;3.43;;;2.83;;
4389;SDS011;2209;48.982;8.406;2023-11-21T08:13:32;2.97;;;2.77;;
4389;SDS011;2209;48.982;8.406;2023-11-21T08:15:55;3.67;;;3.37;;
4389;SDS011;2209;48.982;8.406;2023-11-21T08:18:18;2.83;;;2.50;;
4389;SDS011;2209;48.982;8.406;2023-11-21T08:20:40;2.83;;;2.63;;
4389;SDS011;2209;48.982;8.406;2023-11-21T08:23:02;2.00;;;1.90;;
4389;SDS011;2209;48.982;8.406;2023-11-21T08:25:26;2.67;;;2.43;;
4389;SDS011;2209;48.982;8.406;2023-11-21T08:27:48;3.17;;;2.97;;
4389;SDS011;2209;48.982;8.406;2023-11-21T08:30:12;3.17;;;2.90;;
4389;SDS011;2209;48.982;8.406;2023-11-21T08:32:34;3.07;;;2.87;;
4389;SDS011;2209;48.982;8.406;2023-11-21T08:34:56;3.40;;;3.10;;
4389;SDS011;2209;48.982;8.406;2023-11-21T08:37:18;4.20;;;3.10;;
4389;SDS011;2209;48.982;8.406;2023-11-21T08:39:40;3.73;;;3.43;;
4389;SDS011;2209;48.982;8.406;2023-11-21T08:42:03;4.50;;;4.10;;
4389;SDS011;2209;48.982;8.406;2023-11-21T08:44:25;5.07;;;4.57;;
4389;SDS011;2209;48.982;8.406;2023-11-21T08:46:48;4.70;;;4.30;;
4389;SDS011;2209;48.982;8.406;2023-11-21T08:49:11;5.90;;;4.70;;
4389;SDS011;2209;48.982;8.406;2023-11-21T08:51:34;5.03;;;4.50;;
4389;SDS011;2209;48.982;8.406;2023-11-21T08:53:56;6.30;;;5.80;;
4389;SDS011;2209;48.982;8.406;2023-11-21T08:56:21;6.70;;;6.10;;
4389;SDS011;2209;48.982;8.406;2023-11-21T08:58:43;6.57;;;5.90;;
4389;SDS011;2209;48.982;8.406;2023-11-21T09:01:05;7.27;;;6.53;;
4389;SDS011;2209;48.982;8.406;2023-11-21T09:03:28;8.67;;;6.40;;
4389;SDS011;2209;48.982;8.406;2023-11-21T09:05:52;7.17;;;6.43;;
4389;SDS011;2209;48.982;8.406;2023-11-21T09:08:14;7.20;;;6.50;;
4389;SDS011;2209;48.982;8.406;2023-11-21T09:10:36;8.50;;;7.50;;
4389;SDS011;2209;48.982;8.406;2023-11-21T09:12:59;8.03;;;6.80;;
4389;SDS011;2209;48.982;8.406;2023-11-21T09:15:22;7.63;;;6.83;;
4389;SDS011;2209;48.982;8.406;2023-11-21T09:17:44;8.63;;;7.63;;
4389;SDS011;2209;48.982;8.406;2023-11-21T09:20:08;14.37;;;11.13;;
4389;SDS011;2209;48.982;8.406;2023-11-21T09:22:31;19.83;;;13.23;;
4389;SDS011;2209;48.982;8.406;2023-11-21T09:24:53;10.63;;;8.80;;
4389;SDS011;2209;48.982;8.406;2023-11-21T09:27:16;10.30;;;9.20;;
4389;SDS011;2209;48.982;8.406;2023-11-21T09:29:39;10.27;;;8.30;;
4389;SDS011;2209;48.982;8.406;2023-11-21T09:32:01;11.40;;;8.80;;
4389;SDS011;2209;48.982;8.406;2023-11-21T09:34:23;9.30;;;8.30;;
4389;SDS011;2209;48.982;8.406;2023-11-21T09:36:47;9.90;;;8.50;;
4389;SDS011;2209;48.982;8.406;2023-11-21T09:39:10;9.20;;;8.27;;
4389;SDS011;2209;48.982;8.406;2023-11-21T09:41:37;9.43;;;7.60;;
4389;SDS011;2209;48.982;8.406;2023-11-21T09:44:05;10.30;;;8.30;;
4389;SDS011;2209;48.982;8.406;2023-11-21T09:46:33;10.17;;;9.10;;
4389;SDS011;2209;48.982;8.406;2023-11-21T09:48:55;9.87;;;8.80;;
4389;SDS011;2209;48.982;8.406;2023-11-21T09:51:21;9.27;;;7.87;;
4389;SDS011;2209;48.982;8.406;2023-11-21T09:53:51;9.37;;;8.47;;
4389;SDS011;2209;48.982;8.406;2023-11-21T09:56:13;8.60;;;7.67;;
4389;SDS011;2209;48.982;8.406;2023-11-21T09:58:39;11.17;;;9.13;;
4389;SDS011;2209;48.982;8.406;2023-11-21T10:01:01;12.20;;;8.47;;
4389;SDS011;2209;48.982;8.406;2023-11-21T10:03:27;10.17;;;7.80;;
4389;SDS011;2209;48.982;8.406;2023-11-21T10:05:50;9.67;;;8.70;;
4389;SDS011;2209;48.982;8.406;2023-11-21T10:08:14;10.50;;;9.40;;
4389;SDS011;2209;48.982;8.406;2023-11-21T10:10:38;11.33;;;8.43;;
4389;SDS011;2209;48.982;8.406;2023-11-21T10:13:06;9.90;;;8.90;;
4389;SDS011;2209;48.982;8.406;2023-11-21T10:15:30;9.83;;;8.60;;
4389;SDS011;2209;48.982;8.406;2023-11-21T10:17:55;9.77;;;8.77;;
4389;SDS011;2209;48.982;8.406;2023-11-21T10:20:17;9.33;;;8.33;;
4389;SDS011;2209;48.982;8.406;2023-11-21T10:22:40;8.27;;;7.33;;
4389;SDS011;2209;48.982;8.406;2023-11-21T10:25:03;9.97;;;8.33;;
4389;SDS011;2209;48.982;8.406;2023-11-21T10:27:29;13.53;;;7.80;;
4389;SDS011;2209;48.982;8.406;2023-11-21T10:29:51;9.07;;;7.23;;
4389;SDS011;2209;48.982;8.406;2023-11-21T10:32:14;9.70;;;7.30;;
4389;SDS011;2209;48.982;8.406;2023-11-21T10:34:36;7.37;;;6.57;;
4389;SDS011;2209;48.982;8.406;2023-11-21T10:36:58;9.27;;;8.27;;
4389;SDS011;2209;48.982;8.406;2023-11-21T10:39:20;9.80;;;7.70;;
4389;SDS011;2209;48.982;8.406;2023-11-21T10:41:44;7.40;;;6.60;;
4389;SDS011;2209;48.982;8.406;2023-11-21T10:44:08;8.33;;;7.53;;
4389;SDS011;2209;48.982;8.406;2023-11-21T10:46:31;10.10;;;6.13;;
4389;SDS011;2209;48.982;8.406;2023-11-21T10:48:54;7.37;;;6.67;;
4389;SDS011;2209;48.982;8.406;2023-11-21T10:51:16;6.23;;;5.10;;
4389;SDS011;2209;48.982;8.406;2023-11-21T10:53:39;6.73;;;6.10;;
4389;SDS011;2209;48.982;8.406;2023-11-21T10:56:02;7.07;;;5.67;;
4389;SDS011;2209;48.982;8.406;2023-11-21T10:58:27;8.20;;;6.40;;
4389;SDS011;2209;48.982;8.406;2023-11-21T11:00:51;7.40;;;6.30;;
4389;SDS011;2209;48.982;8.406;2023-11-21T11:03:13;6.27;;;5.67;;
4389;SDS011;2209;48.982;8.406;2023-11-21T11:05:36;6.83;;;5.70;;
4389;SDS011;2209;48.982;8.406;2023-11-21T11:08:01;6.70;;;6.07;;
4389;SDS011;2209;48.982;8.406;2023-11-21T11:10:26;7.80;;;6.10;;
4389;SDS011;2209;48.982;8.406;2023-11-21T11:12:49;6.03;;;5.40;;
4389;SDS011;2209;48.982;8.406;2023-11-21T11:15:12;7.63;;;5.70;;
4389;SDS011;2209;48.982;8.406;2023-11-21T11:17:37;6.20;;;5.60;;
4389;SDS011;2209;48.982;8.406;2023-11-21T11:20:01;5.33;;;4.80;;
4389;SDS011;2209;48.982;8.406;2023-11-21T11:22:29;6.37;;;5.77;;
4389;SDS011;2209;48.982;8.406;2023-11-21T11:25:03;6.20;;;5.60;;
4389;SDS011;2209;48.982;8.406;2023-11-21T11:27:54;8.23;;;6.80;;
4389;SDS011;2209;48.982;8.406;2023-11-21T11:30:24;7.20;;;6.50;;
4389;SDS011;2209;48.982;8.406;2023-11-21T11:33:03;7.13;;;6.43;;
4389;SDS011;2209;48.982;8.406;2023-11-21T11:35:37;7.07;;;6.37;;
4389;SDS011;2209;48.982;8.406;2023-11-21T11:38:04;6.57;;;5.97;;
4389;SDS011;2209;48.982;8.406;2023-11-21T11:40:33;6.83;;;6.17;;
4389;SDS011;2209;48.982;8.406;2023-11-21T11:43:01;6.27;;;5.70;;
4389;SDS011;2209;48.982;8.406;2023-11-21T11:45:24;6.53;;;6.00;;
4389;SDS011;2209;48.982;8.406;2023-11-21T11:47:56;7.03;;;6.43;;
4389;SDS011;2209;48.982;8.406;2023-11-21T11:50:20;6.90;;;6.30;;
4389;SDS011;2209;48.982;8.406;2023-11-21T11:52:42;6.17;;;5.67;;
4389;SDS011;2209;48.982;8.406;2023-11-21T11:55:06;7.40;;;5.33;;
4389;SDS011;2209;48.982;8.406;2023-11-21T11:57:30;7.17;;;6.40;;
4389;SDS011;2209;48.982;8.406;2023-11-21T12:00:09;6.80;;;6.20;;
4389;SDS011;2209;48.982;8.406;2023-11-21T12:02:36;8.23;;;7.33;;
4389;SDS011;2209;48.982;8.406;2023-11-21T12:04:58;8.10;;;7.30;;
4389;SDS011;2209;48.982;8.406;2023-11-21T12:07:21;7.53;;;6.83;;
4389;SDS011;2209;48.982;8.406;2023-11-21T12:09:44;7.87;;;7.03;;
4389;SDS011;2209;48.982;8.406;2023-11-21T12:12:08;6.47;;;5.90;;
4389;SDS011;2209;48.982;8.406;2023-11-21T12:14:30;11.63;;;10.43;;
4389;SDS011;2209;48.982;8.406;2023-11-21T12:16:52;9.53;;;8.30;;
4389;SDS011;2209;48.982;8.406;2023-11-21T12:19:15;8.03;;;7.23;;
4389;SDS011;2209;48.982;8.406;2023-11-21T12:21:37;9.10;;;7.40;;
4389;SDS011;2209;48.982;8.406;2023-11-21T12:24:02;7.40;;;6.70;;
4389;SDS011;2209;48.982;8.406;2023-11-21T12:26:28;7.53;;;6.23;;
4389;SDS011;2209;48.982;8.406;2023-11-21T12:28:51;8.83;;;6.70;;
4389;SDS011;2209;48.982;8.406;2023-11-21T12:31:16;9.20;;;7.60;;
4389;SDS011;2209;48.982;8.406;2023-11-21T12:33:38;8.10;;;6.00;;
4389;SDS011;2209;48.982;8.406;2023-11-21T12:36:01;7.50;;;6.80;;
4389;SDS011;2209;48.982;8.406;2023-11-21T12:38:23;8.20;;;6.90;;
4389;SDS011;2209;48.982;8.406;2023-11-21T12:40:47;8.07;;;7.37;;
4389;SDS011;2209;48.982;8.406;2023-11-21T12:43:09;7.90;;;6.57;;
4389;SDS011;2209;48.982;8.406;2023-11-21T12:45:31;8.70;;;7.90;;
4389;SDS011;2209;48.982;8.406;2023-11-21T12:47:54;8.03;;;7.23;;
4389;SDS011;2209;48.982;8.406;2023-11-21T12:50:20;7.73;;;6.80;;
4389;SDS011;2209;48.982;8.406;2023-11-21T12:52:44;8.03;;;6.50;;
4389;SDS011;2209;48.982;8.406;2023-11-21T12:55:08;7.30;;;6.57;;
4389;SDS011;2209;48.982;8.406;2023-11-21T12:57:34;7.53;;;6.80;;
4389;SDS011;2209;48.982;8.406;2023-11-21T12:59:58;8.77;;;7.20;;
4389;SDS011;2209;48.982;8.406;2023-11-21T13:02:25;9.07;;;8.13;;
4389;SDS011;2209;48.982;8.406;2023-11-21T13:04:51;7.27;;;6.67;;
4389;SDS011;2209;48.982;8.406;2023-11-21T13:07:13;8.50;;;7.80;;
4389;SDS011;2209;48.982;8.406;2023-11-21T13:09:35;7.87;;;7.17;;
4389;SDS011;2209;48.982;8.406;2023-11-21T13:11:59;8.33;;;7.53;;
4389;SDS011;2209;48.982;8.406;2023-11-21T13:14:29;6.87;;;5.90;;
4389;SDS011;2209;48.982;8.406;2023-11-21T13:16:52;8.40;;;6.27;;
4389;SDS011;2209;48.982;8.406;2023-11-21T13:19:14;6.53;;;5.93;;
4389;SDS011;2209;48.982;8.406;2023-11-21T13:21:36;6.63;;;6.13;;
4389;SDS011;2209;48.982;8.406;2023-11-21T13:24:00;8.50;;;7.50;;
4389;SDS011;2209;48.982;8.406;2023-11-21T13:26:22;6.27;;;5.77;;
4389;SDS011;2209;48.982;8.406;2023-11-21T13:28:46;5.60;;;5.10;;
4389;SDS011;2209;48.982;8.406;2023-11-21T13:31:09;6.87;;;5.37;;
4389;SDS011;2209;48.982;8.406;2023-11-21T13:33:41;6.23;;;5.70;;
4389;SDS011;2209;48.982;8.406;2023-11-21T13:36:07;6.10;;;5.50;;
4389;SDS011;2209;48.982;8.406;2023-11-21T13:38:30;5.83;;;5.30;;
4389;SDS011;2209;48.982;8.406;2023-11-21T13:40:53;5.87;;;4.60;;
4389;SDS011;2209;48.982;8.406;2023-11-21T13:43:16;5.73;;;5.23;;
4389;SDS011;2209;48.982;8.406;2023-11-21T13:45:41;8.30;;;4.63;;
4389;SDS011;2209;48.982;8.406;2023-11-21T13:48:05;5.10;;;4.60;;
4389;SDS011;2209;48.982;8.406;2023-11-21T13:50:30;4.83;;;4.43;;
4389;SDS011;2209;48.982;8.406;2023-11-21T13:52:54;5.63;;;5.13;;
4389;SDS011;2209;48.982;8.406;2023-11-21T13:55:16;5.33;;;4.93;;
4389;SDS011;2209;48.982;8.406;2023-11-21T13:57:38;4.97;;;4.57;;
4389;SDS011;2209;48.982;8.406;2023-11-21T14:00:00;5.20;;;4.70;;
4389;SDS011;2209;48.982;8.406;2023-11-21T14:02:22;6.73;;;4.57;;
4389;SDS011;2209;48.982;8.406;2023-11-21T14:04:54;4.60;;;4.30;;
4389;SDS011;2209;48.982;8.406;2023-11-21T14:07:20;4.83;;;4.43;;
4389;SDS011;2209;48.982;8.406;2023-11-21T14:09:50;4.30;;;3.90;;
4389;SDS011;2209;48.982;8.406;2023-11-21T14:12:13;4.43;;;4.03;;
4389;SDS011;2209;48.982;8.406;2023-11-21T14:14:36;4.53;;;4.23;;
4389;SDS011;2209;48.982;8.406;2023-11-21T14:16:59;3.90;;;3.60;;
4389;SDS011;2209;48.982;8.406;2023-11-21T14:19:27;3.80;;;3.50;;
4389;SDS011;2209;48.982;8.406;2023-11-21T14:21:53;6.83;;;4.60;;
4389;SDS011;2209;48.982;8.406;2023-11-21T14:24:16;4.30;;;4.00;;
4389;SDS011;2209;48.982;8.406;2023-11-21T14:26:39;5.43;;;3.90;;
4389;SDS011;2209;48.982;8.406;2023-11-21T14:29:02;6.97;;;4.10;;
4389;SDS011;2209;48.982;8.406;2023-11-21T14:31:25;6.63;;;5.07;;
4389;SDS011;2209;48.982;8.406;2023-11-21T14:33:49;5.33;;;4.80;;
4389;SDS011;2209;48.982;8.406;2023-11-21T14:36:11;5.43;;;4.93;;
4389;SDS011;2209;48.982;8.406;2023-11-21T14:38:36;5.20;;;4.70;;
4389;SDS011;2209;48.982;8.406;2023-11-21T14:40:59;6.10;;;5.50;;
4389;SDS011;2209;48.982;8.406;2023-11-21T14:43:21;5.33;;;4.20;;
4389;SDS011;2209;48.982;8.406;2023-11-21T14:45:44;4.80;;;4.40;;
4389;SDS011;2209;48.982;8.406;2023-11-21T14:48:06;5.90;;;5.30;;
4389;SDS011;2209;48.982;8.406;2023-11-21T14:50:36;5.30;;;4.80;;
4389;SDS011;2209;48.982;8.406;2023-11-21T14:53:12;4.60;;;4.20;;